createdAt,value
2023-03-22T00:00:01.974Z,100699.47
2023-03-22T00:03:06.354Z,100696.78
2023-03-22T00:06:10.796Z,100688.00
2023-03-22T00:09:15.690Z,100680.09
2023-03-22T00:12:20.725Z,100672.16
2023-03-22T00:15:25.372Z,100673.25
2023-03-22T00:18:29.597Z,100667.31
2023-03-22T00:21:33.795Z,100665.47
2023-03-22T00:24:37.810Z,100656.84
2023-03-22T00:27:42.403Z,100656.72
2023-03-22T00:30:56.480Z,100658.56
2023-03-22T00:34:00.654Z,100650.69
2023-03-22T00:37:05.168Z,100653.19
2023-03-22T00:40:12.843Z,100651.59
2023-03-22T00:43:17.613Z,100645.41
2023-03-22T00:46:22.569Z,100640.84
2023-03-22T00:49:27.305Z,100637.34
2023-03-22T00:52:34.520Z,100636.31
2023-03-22T00:55:39.048Z,100639.16
2023-03-22T00:58:48.126Z,100631.16
2023-03-22T01:01:58.372Z,100616.53
2023-03-22T01:05:05.034Z,100611.41
2023-03-22T01:08:10.586Z,100611.56
2023-03-22T01:11:18.418Z,100605.34
2023-03-22T01:14:25.859Z,100602.63
2023-03-22T01:17:32.050Z,100600.94
2023-03-22T01:20:40.497Z,100599.38
2023-03-22T01:23:50.423Z,100597.03
2023-03-22T01:27:14.933Z,100597.69
2023-03-22T01:30:20.287Z,100586.72
2023-03-22T01:33:34.106Z,100580.69
2023-03-22T01:36:47.758Z,100569.50
2023-03-22T01:39:51.921Z,100568.66
2023-03-22T01:42:56.775Z,100566.97
2023-03-22T01:46:04.300Z,100572.13
2023-03-22T01:49:31.097Z,100572.06
2023-03-22T01:52:37.651Z,100567.66
2023-03-22T01:55:46.144Z,100556.06
2023-03-22T01:58:52.678Z,100563.94
2023-03-22T02:02:03.314Z,100555.88
2023-03-22T02:05:09.086Z,100546.28
2023-03-22T02:08:15.522Z,100545.31
2023-03-22T02:11:30.781Z,100536.81
2023-03-22T02:15:02.960Z,100536.53
2023-03-22T02:18:42.684Z,100536.53
2023-03-22T02:22:04.955Z,100524.50
2023-03-22T02:25:34.029Z,100521.69
2023-03-22T02:29:12.711Z,100519.75
2023-03-22T02:32:16.765Z,100524.06
2023-03-22T02:35:51.435Z,100523.28
2023-03-22T02:39:36.309Z,100521.28
2023-03-22T02:42:59.385Z,100523.00
2023-03-22T02:46:49.405Z,100515.84
2023-03-22T02:50:07.016Z,100529.56
2023-03-22T02:53:31.104Z,100522.78
2023-03-22T02:56:48.384Z,100521.63
2023-03-22T02:59:54.507Z,100519.63
2023-03-22T03:03:11.421Z,100512.72
2023-03-22T03:06:22.036Z,100516.09
2023-03-22T03:09:27.411Z,100514.38
2023-03-22T03:12:35.478Z,100501.22
2023-03-22T03:15:44.260Z,100507.31
2023-03-22T03:19:07.972Z,100496.84
2023-03-22T03:22:42.717Z,100495.00
2023-03-22T03:26:16.421Z,100494.16
2023-03-22T03:29:44.875Z,100498.38
2023-03-22T03:33:03.677Z,100497.31
2023-03-22T03:36:16.772Z,100489.31
2023-03-22T03:39:24.280Z,100496.38
2023-03-22T03:42:30.585Z,100492.16
2023-03-22T03:45:37.784Z,100478.97
2023-03-22T03:48:48.316Z,100482.66
2023-03-22T03:51:55.704Z,100479.13
2023-03-22T03:55:00.183Z,100482.81
2023-03-22T03:58:04.882Z,100473.88
2023-03-22T04:01:09.093Z,100479.13
2023-03-22T04:04:14.381Z,100485.34
2023-03-22T04:07:18.673Z,100471.78
2023-03-22T04:10:23.387Z,100472.72
2023-03-22T04:13:28.047Z,100470.03
2023-03-22T04:16:33.667Z,100469.25
2023-03-22T04:19:38.329Z,100472.00
2023-03-22T04:22:44.173Z,100464.31
2023-03-22T04:25:50.465Z,100464.16
2023-03-22T04:28:54.920Z,100457.38
2023-03-22T04:31:59.321Z,100455.97
2023-03-22T04:35:06.473Z,100459.38
2023-03-22T04:38:10.777Z,100449.75
2023-03-22T04:41:15.109Z,100454.28
2023-03-22T04:44:20.867Z,100455.13
2023-03-22T04:47:27.737Z,100459.53
2023-03-22T04:50:32.039Z,100451.13
2023-03-22T04:53:40.146Z,100447.34
2023-03-22T04:56:44.240Z,100437.56
2023-03-22T04:59:49.677Z,100438.56
2023-03-22T05:02:54.163Z,100437.00
2023-03-22T05:06:03.000Z,100441.25
2023-03-22T05:09:08.095Z,100443.66
2023-03-22T05:12:12.585Z,100450.72
2023-03-22T05:15:17.943Z,100441.97
2023-03-22T05:18:27.654Z,100444.66
2023-03-22T05:21:36.939Z,100458.59
2023-03-22T05:24:41.593Z,100455.97
2023-03-22T05:27:46.119Z,100452.56
2023-03-22T05:30:51.949Z,100448.03
2023-03-22T05:33:56.603Z,100458.69
2023-03-22T05:37:01.688Z,100440.09
2023-03-22T05:40:10.058Z,100440.97
2023-03-22T05:43:16.750Z,100433.03
2023-03-22T05:46:21.477Z,100433.81
2023-03-22T05:49:28.176Z,100429.56
2023-03-22T05:52:32.482Z,100429.47
2023-03-22T05:55:37.365Z,100429.19
2023-03-22T05:58:42.443Z,100428.50
2023-03-22T06:01:47.755Z,100423.78
2023-03-22T06:04:54.559Z,100416.69
2023-03-22T06:07:59.515Z,100414.84
2023-03-22T06:11:04.281Z,100428.44
2023-03-22T06:14:08.740Z,100421.03
2023-03-22T06:17:12.907Z,100415.78
2023-03-22T06:20:20.389Z,100408.47
2023-03-22T06:23:25.701Z,100407.97
2023-03-22T06:26:30.441Z,100391.00
2023-03-22T06:29:35.204Z,100392.69
2023-03-22T06:32:39.642Z,100396.94
2023-03-22T06:35:43.968Z,100402.03
2023-03-22T06:38:52.281Z,100398.28
2023-03-22T06:41:57.888Z,100410.50
2023-03-22T06:45:08.397Z,100406.09
2023-03-22T06:48:13.708Z,100402.38
2023-03-22T06:51:24.518Z,100394.75
2023-03-22T06:54:28.946Z,100396.47
2023-03-22T06:57:33.510Z,100390.13
2023-03-22T07:00:39.600Z,100384.13
2023-03-22T07:03:45.684Z,100370.00
2023-03-22T07:06:50.294Z,100362.66
2023-03-22T07:09:54.442Z,100370.59
2023-03-22T07:12:58.926Z,100362.50
2023-03-22T07:16:06.576Z,100356.31
2023-03-22T07:19:13.761Z,100352.00
2023-03-22T07:22:23.021Z,100354.09
2023-03-22T07:25:31.493Z,100344.41
2023-03-22T07:28:37.199Z,100341.34
2023-03-22T07:35:08.591Z,100315.81
2023-03-22T07:38:13.216Z,100319.28
2023-03-22T07:41:22.562Z,100313.78
2023-03-22T07:44:28.746Z,100312.72
2023-03-22T07:47:40.849Z,100287.78
2023-03-22T07:50:46.895Z,100280.56
2023-03-22T07:53:52.817Z,100262.13
2023-03-22T07:56:59.625Z,100265.31
2023-03-22T08:00:11.501Z,100251.44
2023-03-22T08:03:16.241Z,100250.41
2023-03-22T08:06:28.077Z,100254.13
2023-03-22T08:09:35.668Z,100247.06
2023-03-22T08:12:41.560Z,100238.28
2023-03-22T08:15:48.950Z,100237.38
2023-03-22T08:18:56.646Z,100234.66
2023-03-22T08:22:03.603Z,100234.56
2023-03-22T08:25:14.250Z,100226.69
2023-03-22T08:28:31.883Z,100227.16
2023-03-22T08:31:41.616Z,100224.81
2023-03-22T08:34:52.989Z,100236.69
2023-03-22T08:37:57.370Z,100233.06
2023-03-22T08:41:06.130Z,100235.50
2023-03-22T08:44:25.396Z,100224.31
2023-03-22T08:47:38.775Z,100224.72
2023-03-22T08:57:38.945Z,100228.34
2023-03-22T09:00:49.452Z,100206.25
2023-03-22T09:03:56.633Z,100218.00
2023-03-22T09:07:09.210Z,100219.59
2023-03-22T09:10:13.922Z,100220.84
2023-03-22T09:13:18.796Z,100222.34
2023-03-22T09:16:23.650Z,100223.81
2023-03-22T09:19:31.902Z,100215.19
2023-03-22T09:22:37.469Z,100218.34
2023-03-22T09:25:47.057Z,100226.78
2023-03-22T09:28:52.576Z,100234.31
2023-03-22T09:32:01.682Z,100219.59
2023-03-22T09:35:26.895Z,100204.13
2023-03-22T09:38:35.412Z,100211.94
2023-03-22T09:41:53.972Z,100189.59
2023-03-22T09:45:01.285Z,100194.56
2023-03-22T09:48:27.731Z,100183.84
2023-03-22T09:51:51.555Z,100183.06
2023-03-22T09:54:56.127Z,100179.88
2023-03-22T09:58:26.594Z,100177.63
2023-03-22T10:01:50.615Z,100182.50
2023-03-22T10:05:09.491Z,100179.97
2023-03-22T10:08:26.040Z,100171.97
2023-03-22T10:11:36.419Z,100172.19
2023-03-22T10:14:49.972Z,100188.91
2023-03-22T10:17:56.484Z,100188.81
2023-03-22T10:21:21.700Z,100187.78
2023-03-22T10:27:54.549Z,100201.34
2023-03-22T10:31:02.278Z,100197.13
2023-03-22T10:34:36.057Z,100189.13
2023-03-22T10:37:51.738Z,100184.34
2023-03-22T10:41:13.265Z,100193.44
2023-03-22T10:44:26.289Z,100185.44
2023-03-22T10:52:33.116Z,100199.44
2023-03-22T10:56:28.517Z,100183.63
2023-03-22T11:00:21.291Z,100191.69
2023-03-22T11:04:08.666Z,100176.34
2023-03-22T11:07:38.177Z,100180.53
2023-03-22T11:11:08.171Z,100168.97
2023-03-22T11:14:32.927Z,100166.50
2023-03-22T11:17:45.756Z,100152.63
2023-03-22T11:21:07.623Z,100150.00
2023-03-22T11:24:18.870Z,100152.31
2023-03-22T11:28:40.818Z,100145.06
